sensor_id;sensor_type;location;lat;lon;timestamp;P1;durP1;ratioP1;P2;durP2;ratioP2
61938;SDS011;47897;50.322;18.892;2023-04-29T00:00:05;10.30;;;8.70;;
61938;SDS011;47897;50.322;18.892;2023-04-29T00:02:52;12.80;;;8.80;;
61938;SDS011;47897;50.322;18.892;2023-04-29T00:05:19;9.90;;;8.30;;
61938;SDS011;47897;50.322;18.892;2023-04-29T00:07:45;9.10;;;8.10;;
61938;SDS011;47897;50.322;18.892;2023-04-29T00:10:12;9.10;;;8.00;;
61938;SDS011;47897;50.322;18.892;2023-04-29T00:12:40;11.00;;;8.10;;
61938;SDS011;47897;50.322;18.892;2023-04-29T00:15:07;10.10;;;8.40;;
61938;SDS011;47897;50.322;18.892;2023-04-29T00:17:34;9.70;;;8.70;;
61938;SDS011;47897;50.322;18.892;2023-04-29T00:20:02;9.80;;;8.30;;
61938;SDS011;47897;50.322;18.892;2023-04-29T00:22:28;14.40;;;8.60;;
61938;SDS011;47897;50.322;18.892;2023-04-29T00:24:55;10.60;;;8.10;;
61938;SDS011;47897;50.322;18.892;2023-04-29T00:27:22;9.80;;;7.90;;
61938;SDS011;47897;50.322;18.892;2023-04-29T00:29:48;9.00;;;7.80;;
61938;SDS011;47897;50.322;18.892;2023-04-29T00:32:15;9.30;;;8.30;;
61938;SDS011;47897;50.322;18.892;2023-04-29T00:34:41;9.10;;;8.20;;
61938;SDS011;47897;50.322;18.892;2023-04-29T00:37:08;8.70;;;7.70;;
61938;SDS011;47897;50.322;18.892;2023-04-29T00:39:35;9.90;;;8.90;;
61938;SDS011;47897;50.322;18.892;2023-04-29T00:42:02;11.40;;;8.80;;
61938;SDS011;47897;50.322;18.892;2023-04-29T00:44:29;9.50;;;8.20;;
61938;SDS011;47897;50.322;18.892;2023-04-29T00:46:55;9.70;;;8.10;;
61938;SDS011;47897;50.322;18.892;2023-04-29T00:49:22;9.00;;;7.90;;
61938;SDS011;47897;50.322;18.892;2023-04-29T00:51:49;10.60;;;7.90;;
61938;SDS011;47897;50.322;18.892;2023-04-29T00:54:16;9.50;;;8.20;;
61938;SDS011;47897;50.322;18.892;2023-04-29T00:56:44;9.30;;;7.70;;
61938;SDS011;47897;50.322;18.892;2023-04-29T00:59:11;8.30;;;7.50;;
61938;SDS011;47897;50.322;18.892;2023-04-29T01:01:38;10.40;;;8.10;;
61938;SDS011;47897;50.322;18.892;2023-04-29T01:04:04;8.80;;;7.70;;
61938;SDS011;47897;50.322;18.892;2023-04-29T01:12:37;8.90;;;7.50;;
61938;SDS011;47897;50.322;18.892;2023-04-29T01:14:34;10.10;;;8.10;;
61938;SDS011;47897;50.322;18.892;2023-04-29T01:17:05;8.90;;;7.90;;
61938;SDS011;47897;50.322;18.892;2023-04-29T01:19:43;8.30;;;7.20;;
61938;SDS011;47897;50.322;18.892;2023-04-29T01:22:11;8.40;;;7.40;;
61938;SDS011;47897;50.322;18.892;2023-04-29T01:24:39;9.70;;;8.20;;
61938;SDS011;47897;50.322;18.892;2023-04-29T01:33:22;9.80;;;7.90;;
61938;SDS011;47897;50.322;18.892;2023-04-29T01:35:39;8.10;;;7.10;;
61938;SDS011;47897;50.322;18.892;2023-04-29T01:38:15;9.40;;;7.70;;
61938;SDS011;47897;50.322;18.892;2023-04-29T01:40:47;10.60;;;7.70;;
61938;SDS011;47897;50.322;18.892;2023-04-29T01:43:22;8.30;;;7.30;;
61938;SDS011;47897;50.322;18.892;2023-04-29T01:45:51;9.80;;;7.70;;
61938;SDS011;47897;50.322;18.892;2023-04-29T01:48:18;9.10;;;7.70;;
61938;SDS011;47897;50.322;18.892;2023-04-29T01:50:46;7.90;;;7.00;;
61938;SDS011;47897;50.322;18.892;2023-04-29T01:53:13;8.50;;;7.20;;
61938;SDS011;47897;50.322;18.892;2023-04-29T01:55:39;7.80;;;7.10;;
61938;SDS011;47897;50.322;18.892;2023-04-29T01:58:06;9.60;;;7.50;;
61938;SDS011;47897;50.322;18.892;2023-04-29T02:00:33;8.00;;;7.20;;
61938;SDS011;47897;50.322;18.892;2023-04-29T02:02:59;9.70;;;7.70;;
61938;SDS011;47897;50.322;18.892;2023-04-29T02:05:26;8.90;;;8.00;;
61938;SDS011;47897;50.322;18.892;2023-04-29T02:10:24;8.00;;;7.00;;
61938;SDS011;47897;50.322;18.892;2023-04-29T02:12:50;9.40;;;7.00;;
61938;SDS011;47897;50.322;18.892;2023-04-29T02:15:17;9.00;;;7.50;;
61938;SDS011;47897;50.322;18.892;2023-04-29T02:17:45;8.50;;;7.30;;
61938;SDS011;47897;50.322;18.892;2023-04-29T02:20:12;9.60;;;7.40;;
61938;SDS011;47897;50.322;18.892;2023-04-29T02:22:38;10.20;;;7.70;;
61938;SDS011;47897;50.322;18.892;2023-04-29T02:25:05;10.90;;;8.60;;
61938;SDS011;47897;50.322;18.892;2023-04-29T02:27:32;12.70;;;11.20;;
61938;SDS011;47897;50.322;18.892;2023-04-29T02:29:58;14.70;;;12.90;;
61938;SDS011;47897;50.322;18.892;2023-04-29T02:32:25;18.60;;;13.80;;
61938;SDS011;47897;50.322;18.892;2023-04-29T02:34:52;15.90;;;12.40;;
61938;SDS011;47897;50.322;18.892;2023-04-29T02:37:18;11.90;;;10.50;;
61938;SDS011;47897;50.322;18.892;2023-04-29T02:39:45;11.90;;;9.40;;
61938;SDS011;47897;50.322;18.892;2023-04-29T02:42:12;10.60;;;8.90;;
61938;SDS011;47897;50.322;18.892;2023-04-29T02:44:39;11.80;;;8.50;;
61938;SDS011;47897;50.322;18.892;2023-04-29T02:47:06;9.20;;;7.70;;
61938;SDS011;47897;50.322;18.892;2023-04-29T02:49:33;9.30;;;7.60;;
61938;SDS011;47897;50.322;18.892;2023-04-29T02:52:00;8.70;;;7.50;;
61938;SDS011;47897;50.322;18.892;2023-04-29T02:54:26;10.70;;;8.80;;
61938;SDS011;47897;50.322;18.892;2023-04-29T02:56:53;9.70;;;8.70;;
61938;SDS011;47897;50.322;18.892;2023-04-29T02:59:20;12.40;;;11.00;;
61938;SDS011;47897;50.322;18.892;2023-04-29T03:01:47;16.30;;;12.50;;
61938;SDS011;47897;50.322;18.892;2023-04-29T03:04:14;14.20;;;10.50;;
61938;SDS011;47897;50.322;18.892;2023-04-29T03:06:41;11.10;;;9.30;;
61938;SDS011;47897;50.322;18.892;2023-04-29T03:09:08;11.00;;;8.70;;
61938;SDS011;47897;50.322;18.892;2023-04-29T03:11:35;10.50;;;8.70;;
61938;SDS011;47897;50.322;18.892;2023-04-29T03:14:02;10.50;;;8.90;;
61938;SDS011;47897;50.322;18.892;2023-04-29T03:16:29;11.70;;;9.90;;
61938;SDS011;47897;50.322;18.892;2023-04-29T03:18:56;9.90;;;8.90;;
61938;SDS011;47897;50.322;18.892;2023-04-29T03:21:23;9.50;;;7.90;;
61938;SDS011;47897;50.322;18.892;2023-04-29T03:23:52;11.00;;;9.80;;
61938;SDS011;47897;50.322;18.892;2023-04-29T03:26:19;11.70;;;9.90;;
61938;SDS011;47897;50.322;18.892;2023-04-29T03:28:49;11.70;;;10.40;;
61938;SDS011;47897;50.322;18.892;2023-04-29T03:31:16;10.20;;;9.20;;
61938;SDS011;47897;50.322;18.892;2023-04-29T03:33:43;9.40;;;8.50;;
61938;SDS011;47897;50.322;18.892;2023-04-29T03:36:09;10.00;;;8.20;;
61938;SDS011;47897;50.322;18.892;2023-04-29T03:38:36;9.00;;;8.00;;
61938;SDS011;47897;50.322;18.892;2023-04-29T03:41:03;10.00;;;8.50;;
61938;SDS011;47897;50.322;18.892;2023-04-29T03:43:29;10.30;;;9.10;;
61938;SDS011;47897;50.322;18.892;2023-04-29T03:45:56;9.20;;;8.30;;
61938;SDS011;47897;50.322;18.892;2023-04-29T03:48:23;8.60;;;7.20;;
61938;SDS011;47897;50.322;18.892;2023-04-29T03:50:50;7.70;;;6.90;;
61938;SDS011;47897;50.322;18.892;2023-04-29T03:53:16;8.70;;;7.80;;
61938;SDS011;47897;50.322;18.892;2023-04-29T03:55:43;8.90;;;7.80;;
61938;SDS011;47897;50.322;18.892;2023-04-29T03:58:10;9.80;;;8.50;;
61938;SDS011;47897;50.322;18.892;2023-04-29T04:00:37;9.70;;;8.50;;
61938;SDS011;47897;50.322;18.892;2023-04-29T04:03:04;9.60;;;8.10;;
61938;SDS011;47897;50.322;18.892;2023-04-29T04:05:30;11.50;;;9.10;;
61938;SDS011;47897;50.322;18.892;2023-04-29T04:07:57;10.30;;;8.90;;
61938;SDS011;47897;50.322;18.892;2023-04-29T04:10:25;8.60;;;7.60;;
61938;SDS011;47897;50.322;18.892;2023-04-29T04:12:53;8.80;;;7.70;;
61938;SDS011;47897;50.322;18.892;2023-04-29T04:15:20;9.60;;;8.10;;
61938;SDS011;47897;50.322;18.892;2023-04-29T04:17:48;9.30;;;8.00;;
61938;SDS011;47897;50.322;18.892;2023-04-29T04:20:15;11.20;;;9.00;;
61938;SDS011;47897;50.322;18.892;2023-04-29T04:22:42;9.90;;;7.90;;
61938;SDS011;47897;50.322;18.892;2023-04-29T04:25:09;9.60;;;7.90;;
61938;SDS011;47897;50.322;18.892;2023-04-29T04:27:36;11.50;;;8.20;;
61938;SDS011;47897;50.322;18.892;2023-04-29T04:30:03;8.20;;;7.10;;
61938;SDS011;47897;50.322;18.892;2023-04-29T04:32:30;8.90;;;7.50;;
61938;SDS011;47897;50.322;18.892;2023-04-29T04:34:57;7.80;;;6.00;;
61938;SDS011;47897;50.322;18.892;2023-04-29T04:37:23;7.40;;;6.60;;
61938;SDS011;47897;50.322;18.892;2023-04-29T04:39:50;8.10;;;7.30;;
61938;SDS011;47897;50.322;18.892;2023-04-29T04:42:17;8.50;;;7.20;;
61938;SDS011;47897;50.322;18.892;2023-04-29T04:44:43;7.70;;;7.00;;
61938;SDS011;47897;50.322;18.892;2023-04-29T04:47:10;9.80;;;7.40;;
61938;SDS011;47897;50.322;18.892;2023-04-29T04:49:37;8.90;;;7.20;;
61938;SDS011;47897;50.322;18.892;2023-04-29T04:52:03;8.10;;;6.80;;
61938;SDS011;47897;50.322;18.892;2023-04-29T04:54:30;9.10;;;7.40;;
61938;SDS011;47897;50.322;18.892;2023-04-29T04:56:57;11.90;;;7.20;;
61938;SDS011;47897;50.322;18.892;2023-04-29T04:59:24;7.70;;;6.90;;
61938;SDS011;47897;50.322;18.892;2023-04-29T05:01:51;10.00;;;7.20;;
61938;SDS011;47897;50.322;18.892;2023-04-29T05:04:17;8.80;;;7.70;;
61938;SDS011;47897;50.322;18.892;2023-04-29T05:06:44;11.40;;;8.00;;
61938;SDS011;47897;50.322;18.892;2023-04-29T05:09:11;9.20;;;7.90;;
61938;SDS011;47897;50.322;18.892;2023-04-29T05:11:38;9.50;;;7.40;;
61938;SDS011;47897;50.322;18.892;2023-04-29T05:14:05;9.10;;;8.20;;
61938;SDS011;47897;50.322;18.892;2023-04-29T05:16:31;9.00;;;7.60;;
61938;SDS011;47897;50.322;18.892;2023-04-29T05:18:58;10.90;;;8.30;;
61938;SDS011;47897;50.322;18.892;2023-04-29T05:21:25;9.90;;;8.30;;
61938;SDS011;47897;50.322;18.892;2023-04-29T05:23:51;9.80;;;8.00;;
61938;SDS011;47897;50.322;18.892;2023-04-29T05:26:18;11.40;;;9.20;;
61938;SDS011;47897;50.322;18.892;2023-04-29T05:28:44;12.20;;;8.70;;
61938;SDS011;47897;50.322;18.892;2023-04-29T05:31:11;10.00;;;8.20;;
61938;SDS011;47897;50.322;18.892;2023-04-29T05:33:38;9.80;;;8.60;;
61938;SDS011;47897;50.322;18.892;2023-04-29T05:36:04;10.30;;;9.10;;
61938;SDS011;47897;50.322;18.892;2023-04-29T05:38:32;9.70;;;8.80;;
61938;SDS011;47897;50.322;18.892;2023-04-29T05:40:58;8.80;;;7.80;;
61938;SDS011;47897;50.322;18.892;2023-04-29T05:43:25;8.40;;;7.60;;
61938;SDS011;47897;50.322;18.892;2023-04-29T05:45:52;8.10;;;7.30;;
61938;SDS011;47897;50.322;18.892;2023-04-29T05:48:19;8.00;;;7.20;;
61938;SDS011;47897;50.322;18.892;2023-04-29T05:50:46;8.20;;;7.40;;
61938;SDS011;47897;50.322;18.892;2023-04-29T05:53:13;9.00;;;7.40;;
61938;SDS011;47897;50.322;18.892;2023-04-29T05:55:40;9.20;;;8.30;;
61938;SDS011;47897;50.322;18.892;2023-04-29T05:58:11;8.80;;;7.80;;
61938;SDS011;47897;50.322;18.892;2023-04-29T06:00:38;8.70;;;7.60;;
61938;SDS011;47897;50.322;18.892;2023-04-29T06:03:05;9.70;;;8.40;;
61938;SDS011;47897;50.322;18.892;2023-04-29T06:05:31;9.30;;;8.20;;
61938;SDS011;47897;50.322;18.892;2023-04-29T06:07:59;9.10;;;7.80;;
61938;SDS011;47897;50.322;18.892;2023-04-29T06:10:26;10.70;;;8.20;;
61938;SDS011;47897;50.322;18.892;2023-04-29T06:12:53;8.50;;;7.60;;
61938;SDS011;47897;50.322;18.892;2023-04-29T06:15:19;7.90;;;7.10;;
61938;SDS011;47897;50.322;18.892;2023-04-29T06:17:46;8.50;;;7.60;;
61938;SDS011;47897;50.322;18.892;2023-04-29T06:20:14;9.40;;;8.50;;
61938;SDS011;47897;50.322;18.892;2023-04-29T06:22:40;10.00;;;9.00;;
61938;SDS011;47897;50.322;18.892;2023-04-29T06:25:07;9.50;;;7.90;;
61938;SDS011;47897;50.322;18.892;2023-04-29T06:27:34;8.70;;;7.40;;
61938;SDS011;47897;50.322;18.892;2023-04-29T06:30:01;9.30;;;7.40;;
61938;SDS011;47897;50.322;18.892;2023-04-29T06:32:27;8.60;;;7.40;;
61938;SDS011;47897;50.322;18.892;2023-04-29T06:34:54;7.40;;;6.70;;
61938;SDS011;47897;50.322;18.892;2023-04-29T06:37:21;7.40;;;6.70;;
61938;SDS011;47897;50.322;18.892;2023-04-29T06:39:47;7.00;;;6.30;;
61938;SDS011;47897;50.322;18.892;2023-04-29T06:42:14;7.20;;;6.40;;
61938;SDS011;47897;50.322;18.892;2023-04-29T06:44:41;7.90;;;7.10;;
61938;SDS011;47897;50.322;18.892;2023-04-29T06:47:08;7.40;;;6.70;;
61938;SDS011;47897;50.322;18.892;2023-04-29T06:49:35;7.20;;;6.60;;
61938;SDS011;47897;50.322;18.892;2023-04-29T06:52:01;7.50;;;6.60;;
61938;SDS011;47897;50.322;18.892;2023-04-29T06:54:28;6.70;;;6.00;;
61938;SDS011;47897;50.322;18.892;2023-04-29T06:56:55;7.40;;;6.70;;
61938;SDS011;47897;50.322;18.892;2023-04-29T06:59:21;8.30;;;6.60;;
61938;SDS011;47897;50.322;18.892;2023-04-29T07:01:48;8.00;;;7.10;;
61938;SDS011;47897;50.322;18.892;2023-04-29T07:04:15;8.30;;;6.40;;
61938;SDS011;47897;50.322;18.892;2023-04-29T07:06:41;7.20;;;6.50;;
61938;SDS011;47897;50.322;18.892;2023-04-29T07:09:12;6.50;;;5.90;;
61938;SDS011;47897;50.322;18.892;2023-04-29T07:11:41;7.30;;;5.90;;
61938;SDS011;47897;50.322;18.892;2023-04-29T07:14:08;7.60;;;6.40;;
61938;SDS011;47897;50.322;18.892;2023-04-29T07:16:35;6.40;;;5.80;;
61938;SDS011;47897;50.322;18.892;2023-04-29T07:19:02;7.50;;;6.80;;
61938;SDS011;47897;50.322;18.892;2023-04-29T07:21:28;7.10;;;6.40;;
61938;SDS011;47897;50.322;18.892;2023-04-29T07:23:56;7.10;;;6.40;;
61938;SDS011;47897;50.322;18.892;2023-04-29T07:26:26;6.80;;;6.10;;
61938;SDS011;47897;50.322;18.892;2023-04-29T07:28:52;7.10;;;6.30;;
61938;SDS011;47897;50.322;18.892;2023-04-29T07:31:20;7.50;;;6.60;;
61938;SDS011;47897;50.322;18.892;2023-04-29T07:33:47;6.80;;;6.10;;
61938;SDS011;47897;50.322;18.892;2023-04-29T07:36:14;7.30;;;6.50;;
61938;SDS011;47897;50.322;18.892;2023-04-29T07:38:41;7.10;;;6.40;;
61938;SDS011;47897;50.322;18.892;2023-04-29T07:41:07;7.80;;;7.00;;
61938;SDS011;47897;50.322;18.892;2023-04-29T07:43:34;7.30;;;6.60;;
61938;SDS011;47897;50.322;18.892;2023-04-29T07:46:01;7.00;;;6.30;;
61938;SDS011;47897;50.322;18.892;2023-04-29T07:48:28;8.20;;;6.70;;
61938;SDS011;47897;50.322;18.892;2023-04-29T07:50:54;8.20;;;6.70;;
61938;SDS011;47897;50.322;18.892;2023-04-29T07:53:21;6.60;;;6.00;;
61938;SDS011;47897;50.322;18.892;2023-04-29T07:55:48;7.50;;;6.80;;
61938;SDS011;47897;50.322;18.892;2023-04-29T07:58:14;6.90;;;6.20;;
61938;SDS011;47897;50.322;18.892;2023-04-29T08:00:41;8.80;;;6.30;;
61938;SDS011;47897;50.322;18.892;2023-04-29T08:03:08;7.60;;;6.60;;
61938;SDS011;47897;50.322;18.892;2023-04-29T08:05:34;7.50;;;6.10;;
61938;SDS011;47897;50.322;18.892;2023-04-29T08:08:01;7.00;;;6.30;;
61938;SDS011;47897;50.322;18.892;2023-04-29T08:10:28;8.30;;;6.60;;
61938;SDS011;47897;50.322;18.892;2023-04-29T08:12:55;7.20;;;6.10;;
61938;SDS011;47897;50.322;18.892;2023-04-29T08:15:21;8.10;;;7.30;;
61938;SDS011;47897;50.322;18.892;2023-04-29T08:17:48;7.00;;;6.30;;
61938;SDS011;47897;50.322;18.892;2023-04-29T08:20:15;6.90;;;6.20;;
61938;SDS011;47897;50.322;18.892;2023-04-29T08:22:41;7.70;;;6.60;;
61938;SDS011;47897;50.322;18.892;2023-04-29T08:25:08;6.90;;;6.30;;
61938;SDS011;47897;50.322;18.892;2023-04-29T08:27:35;6.30;;;5.70;;
61938;SDS011;47897;50.322;18.892;2023-04-29T08:30:02;5.60;;;5.00;;
61938;SDS011;47897;50.322;18.892;2023-04-29T08:32:29;5.80;;;5.20;;
61938;SDS011;47897;50.322;18.892;2023-04-29T08:34:55;6.30;;;5.20;;
61938;SDS011;47897;50.322;18.892;2023-04-29T08:37:22;6.80;;;6.20;;
61938;SDS011;47897;50.322;18.892;2023-04-29T08:39:49;6.60;;;4.80;;
61938;SDS011;47897;50.322;18.892;2023-04-29T08:42:16;6.20;;;5.60;;
61938;SDS011;47897;50.322;18.892;2023-04-29T08:44:50;6.20;;;5.50;;
61938;SDS011;47897;50.322;18.892;2023-04-29T08:47:18;5.70;;;5.20;;
61938;SDS011;47897;50.322;18.892;2023-04-29T08:49:45;6.90;;;5.90;;
61938;SDS011;47897;50.322;18.892;2023-04-29T08:52:11;6.90;;;5.70;;
61938;SDS011;47897;50.322;18.892;2023-04-29T08:54:38;6.30;;;5.60;;
61938;SDS011;47897;50.322;18.892;2023-04-29T08:57:04;5.60;;;5.00;;
61938;SDS011;47897;50.322;18.892;2023-04-29T08:59:32;6.40;;;5.60;;
61938;SDS011;47897;50.322;18.892;2023-04-29T09:01:58;6.30;;;5.60;;
61938;SDS011;47897;50.322;18.892;2023-04-29T09:07:11;5.80;;;5.20;;
61938;SDS011;47897;50.322;18.892;2023-04-29T09:09:38;6.00;;;5.40;;
61938;SDS011;47897;50.322;18.892;2023-04-29T09:12:05;6.10;;;5.50;;
61938;SDS011;47897;50.322;18.892;2023-04-29T09:14:32;6.00;;;5.30;;
61938;SDS011;47897;50.322;18.892;2023-04-29T09:16:59;6.50;;;5.70;;
61938;SDS011;47897;50.322;18.892;2023-04-29T09:19:32;6.00;;;5.40;;
61938;SDS011;47897;50.322;18.892;2023-04-29T09:22:03;6.50;;;5.80;;
61938;SDS011;47897;50.322;18.892;2023-04-29T09:24:30;6.50;;;5.80;;
61938;SDS011;47897;50.322;18.892;2023-04-29T09:26:57;6.50;;;5.10;;
61938;SDS011;47897;50.322;18.892;2023-04-29T09:29:24;7.10;;;6.40;;
61938;SDS011;47897;50.322;18.892;2023-04-29T09:31:51;7.00;;;6.30;;
61938;SDS011;47897;50.322;18.892;2023-04-29T09:34:33;6.80;;;6.10;;
61938;SDS011;47897;50.322;18.892;2023-04-29T09:37:25;5.60;;;5.10;;
61938;SDS011;47897;50.322;18.892;2023-04-29T09:39:53;6.40;;;5.80;;
61938;SDS011;47897;50.322;18.892;2023-04-29T09:42:20;6.80;;;6.20;;
61938;SDS011;47897;50.322;18.892;2023-04-29T09:44:46;6.10;;;5.40;;
61938;SDS011;47897;50.322;18.892;2023-04-29T09:47:13;8.40;;;6.60;;
61938;SDS011;47897;50.322;18.892;2023-04-29T09:49:41;6.90;;;6.20;;
61938;SDS011;47897;50.322;18.892;2023-04-29T09:52:09;6.40;;;5.80;;
61938;SDS011;47897;50.322;18.892;2023-04-29T09:54:36;6.20;;;5.60;;
61938;SDS011;47897;50.322;18.892;2023-04-29T09:57:04;5.90;;;5.30;;
61938;SDS011;47897;50.322;18.892;2023-04-29T09:59:32;6.50;;;5.90;;
61938;SDS011;47897;50.322;18.892;2023-04-29T10:02:01;6.80;;;6.10;;
61938;SDS011;47897;50.322;18.892;2023-04-29T10:04:33;6.50;;;5.90;;
61938;SDS011;47897;50.322;18.892;2023-04-29T10:07:00;7.70;;;5.90;;
61938;SDS011;47897;50.322;18.892;2023-04-29T10:09:28;6.10;;;5.50;;
61938;SDS011;47897;50.322;18.892;2023-04-29T10:11:54;6.80;;;6.10;;
61938;SDS011;47897;50.322;18.892;2023-04-29T10:14:21;7.80;;;6.60;;
61938;SDS011;47897;50.322;18.892;2023-04-29T10:16:53;8.40;;;6.90;;
61938;SDS011;47897;50.322;18.892;2023-04-29T10:19:25;7.50;;;6.80;;
61938;SDS011;47897;50.322;18.892;2023-04-29T10:21:53;7.30;;;6.60;;
61938;SDS011;47897;50.322;18.892;2023-04-29T10:24:20;7.00;;;6.30;;
61938;SDS011;47897;50.322;18.892;2023-04-29T10:26:49;8.20;;;6.70;;
61938;SDS011;47897;50.322;18.892;2023-04-29T10:29:17;7.20;;;6.50;;
61938;SDS011;47897;50.322;18.892;2023-04-29T10:31:45;9.90;;;9.00;;
61938;SDS011;47897;50.322;18.892;2023-04-29T10:34:12;7.10;;;6.50;;
61938;SDS011;47897;50.322;18.892;2023-04-29T10:36:39;8.10;;;7.30;;
61938;SDS011;47897;50.322;18.892;2023-04-29T10:39:08;7.70;;;6.90;;
61938;SDS011;47897;50.322;18.892;2023-04-29T10:41:41;9.20;;;8.30;;
61938;SDS011;47897;50.322;18.892;2023-04-29T10:44:11;7.30;;;6.50;;
61938;SDS011;47897;50.322;18.892;2023-04-29T10:46:37;8.50;;;7.60;;
61938;SDS011;47897;50.322;18.892;2023-04-29T10:49:04;6.90;;;6.20;;
61938;SDS011;47897;50.322;18.892;2023-04-29T10:51:33;7.70;;;6.00;;
61938;SDS011;47897;50.322;18.892;2023-04-29T10:54:07;7.60;;;6.80;;
61938;SDS011;47897;50.322;18.892;2023-04-29T10:56:37;7.00;;;6.30;;
61938;SDS011;47897;50.322;18.892;2023-04-29T10:59:04;6.60;;;5.90;;
61938;SDS011;47897;50.322;18.892;2023-04-29T11:01:44;7.60;;;6.70;;
61938;SDS011;47897;50.322;18.892;2023-04-29T11:04:11;7.20;;;5.20;;
61938;SDS011;47897;50.322;18.892;2023-04-29T11:06:39;7.70;;;5.70;;
61938;SDS011;47897;50.322;18.892;2023-04-29T11:09:08;6.60;;;5.90;;
61938;SDS011;47897;50.322;18.892;2023-04-29T11:11:39;7.20;;;6.20;;
61938;SDS011;47897;50.322;18.892;2023-04-29T11:14:07;6.00;;;5.40;;
61938;SDS011;47897;50.322;18.892;2023-04-29T11:16:35;6.40;;;5.60;;
61938;SDS011;47897;50.322;18.892;2023-04-29T11:21:35;6.40;;;5.80;;
61938;SDS011;47897;50.322;18.892;2023-04-29T11:24:02;6.20;;;5.50;;
61938;SDS011;47897;50.322;18.892;2023-04-29T11:26:33;6.60;;;5.90;;
61938;SDS011;47897;50.322;18.892;2023-04-29T11:28:59;7.90;;;6.60;;
61938;SDS011;47897;50.322;18.892;2023-04-29T11:31:29;6.50;;;5.90;;
61938;SDS011;47897;50.322;18.892;2023-04-29T11:33:56;7.10;;;6.40;;
61938;SDS011;47897;50.322;18.892;2023-04-29T11:36:23;8.60;;;6.50;;
61938;SDS011;47897;50.322;18.892;2023-04-29T11:38:51;8.00;;;6.70;;
61938;SDS011;47897;50.322;18.892;2023-04-29T11:41:18;5.70;;;5.10;;
61938;SDS011;47897;50.322;18.892;2023-04-29T11:43:53;5.90;;;4.60;;
61938;SDS011;47897;50.322;18.892;2023-04-29T11:46:20;6.20;;;4.50;;
61938;SDS011;47897;50.322;18.892;2023-04-29T11:48:47;6.00;;;4.80;;
61938;SDS011;47897;50.322;18.892;2023-04-29T11:51:15;5.20;;;4.70;;
61938;SDS011;47897;50.322;18.892;2023-04-29T11:53:41;5.30;;;4.70;;
61938;SDS011;47897;50.322;18.892;2023-04-29T11:56:08;5.90;;;5.30;;
61938;SDS011;47897;50.322;18.892;2023-04-29T11:58:36;5.30;;;4.80;;
61938;SDS011;47897;50.322;18.892;2023-04-29T12:01:03;6.60;;;5.20;;
61938;SDS011;47897;50.322;18.892;2023-04-29T12:03:31;5.20;;;4.70;;
61938;SDS011;47897;50.322;18.892;2023-04-29T12:06:00;5.80;;;5.10;;
61938;SDS011;47897;50.322;18.892;2023-04-29T12:08:27;5.90;;;5.40;;
61938;SDS011;47897;50.322;18.892;2023-04-29T12:10:55;6.60;;;6.00;;
61938;SDS011;47897;50.322;18.892;2023-04-29T12:13:23;5.60;;;5.00;;
61938;SDS011;47897;50.322;18.892;2023-04-29T12:15:50;6.00;;;5.50;;
61938;SDS011;47897;50.322;18.892;2023-04-29T12:18:18;8.70;;;8.00;;
61938;SDS011;47897;50.322;18.892;2023-04-29T12:20:45;5.70;;;5.20;;
61938;SDS011;47897;50.322;18.892;2023-04-29T12:23:15;5.80;;;5.30;;
61938;SDS011;47897;50.322;18.892;2023-04-29T12:25:51;6.20;;;5.60;;
61938;SDS011;47897;50.322;18.892;2023-04-29T12:28:18;6.70;;;6.10;;
61938;SDS011;47897;50.322;18.892;2023-04-29T12:30:46;4.80;;;3.50;;
61938;SDS011;47897;50.322;18.892;2023-04-29T12:33:23;6.80;;;6.10;;
61938;SDS011;47897;50.322;18.892;2023-04-29T12:35:50;6.80;;;6.20;;
61938;SDS011;47897;50.322;18.892;2023-04-29T12:40:57;6.50;;;6.00;;
61938;SDS011;47897;50.322;18.892;2023-04-29T12:43:27;6.30;;;5.70;;
61938;SDS011;47897;50.322;18.892;2023-04-29T12:46:06;6.00;;;5.40;;
61938;SDS011;47897;50.322;18.892;2023-04-29T12:48:34;6.10;;;5.60;;
61938;SDS011;47897;50.322;18.892;2023-04-29T12:51:03;6.50;;;5.60;;
61938;SDS011;47897;50.322;18.892;2023-04-29T12:53:30;6.10;;;5.50;;
61938;SDS011;47897;50.322;18.892;2023-04-29T12:55:57;5.90;;;5.40;;
61938;SDS011;47897;50.322;18.892;2023-04-29T12:58:24;5.10;;;4.60;;
61938;SDS011;47897;50.322;18.892;2023-04-29T13:00:54;5.20;;;4.70;;
61938;SDS011;47897;50.322;18.892;2023-04-29T13:03:21;6.10;;;4.50;;
61938;SDS011;47897;50.322;18.892;2023-04-29T13:05:47;4.50;;;3.90;;
61938;SDS011;47897;50.322;18.892;2023-04-29T13:08:18;6.20;;;4.30;;
61938;SDS011;47897;50.322;18.892;2023-04-29T13:10:44;4.30;;;3.80;;
61938;SDS011;47897;50.322;18.892;2023-04-29T13:13:11;4.00;;;3.40;;
61938;SDS011;47897;50.322;18.892;2023-04-29T13:15:38;4.40;;;4.00;;
61938;SDS011;47897;50.322;18.892;2023-04-29T13:18:05;4.50;;;4.10;;
61938;SDS011;47897;50.322;18.892;2023-04-29T13:20:32;5.00;;;4.50;;
61938;SDS011;47897;50.322;18.892;2023-04-29T13:22:58;4.90;;;4.30;;
61938;SDS011;47897;50.322;18.892;2023-04-29T13:25:25;4.30;;;3.90;;
61938;SDS011;47897;50.322;18.892;2023-04-29T13:27:52;4.30;;;3.60;;
61938;SDS011;47897;50.322;18.892;2023-04-29T13:30:19;5.40;;;4.20;;
61938;SDS011;47897;50.322;18.892;2023-04-29T13:32:45;5.50;;;4.00;;
61938;SDS011;47897;50.322;18.892;2023-04-29T13:35:12;4.10;;;3.40;;
61938;SDS011;47897;50.322;18.892;2023-04-29T13:37:39;3.50;;;3.20;;
61938;SDS011;47897;50.322;18.892;2023-04-29T13:40:06;4.80;;;4.30;;
61938;SDS011;47897;50.322;18.892;2023-04-29T13:42:36;5.60;;;5.00;;
61938;SDS011;47897;50.322;18.892;2023-04-29T13:45:04;6.80;;;5.80;;
61938;SDS011;47897;50.322;18.892;2023-04-29T13:47:31;5.20;;;3.60;;
61938;SDS011;47897;50.322;18.892;2023-04-29T13:49:58;3.70;;;3.30;;
61938;SDS011;47897;50.322;18.892;2023-04-29T13:52:27;3.80;;;3.10;;
61938;SDS011;47897;50.322;18.892;2023-04-29T13:54:55;5.10;;;4.30;;
61938;SDS011;47897;50.322;18.892;2023-04-29T13:57:22;6.20;;;5.00;;
61938;SDS011;47897;50.322;18.892;2023-04-29T13:59:49;4.80;;;4.30;;
61938;SDS011;47897;50.322;18.892;2023-04-29T14:02:18;4.70;;;4.30;;
61938;SDS011;47897;50.322;18.892;2023-04-29T14:04:44;6.20;;;4.90;;
61938;SDS011;47897;50.322;18.892;2023-04-29T14:07:11;5.10;;;4.60;;
61938;SDS011;47897;50.322;18.892;2023-04-29T14:09:39;5.00;;;4.50;;
61938;SDS011;47897;50.322;18.892;2023-04-29T14:12:09;5.40;;;4.30;;
61938;SDS011;47897;50.322;18.892;2023-04-29T14:14:36;4.70;;;4.30;;
61938;SDS011;47897;50.322;18.892;2023-04-29T14:17:02;5.80;;;5.30;;
61938;SDS011;47897;50.322;18.892;2023-04-29T14:19:29;5.40;;;4.90;;
61938;SDS011;47897;50.322;18.892;2023-04-29T14:21:56;5.20;;;4.70;;
61938;SDS011;47897;50.322;18.892;2023-04-29T14:24:22;5.50;;;5.00;;
61938;SDS011;47897;50.322;18.892;2023-04-29T14:26:49;6.20;;;5.60;;
61938;SDS011;47897;50.322;18.892;2023-04-29T14:29:18;7.00;;;6.30;;
61938;SDS011;47897;50.322;18.892;2023-04-29T14:31:49;7.00;;;6.10;;
61938;SDS011;47897;50.322;18.892;2023-04-29T14:34:16;6.80;;;6.10;;
61938;SDS011;47897;50.322;18.892;2023-04-29T14:36:44;8.30;;;7.50;;
61938;SDS011;47897;50.322;18.892;2023-04-29T14:39:13;8.00;;;7.20;;
61938;SDS011;47897;50.322;18.892;2023-04-29T14:41:40;6.90;;;6.30;;
61938;SDS011;47897;50.322;18.892;2023-04-29T14:44:07;7.30;;;6.10;;
61938;SDS011;47897;50.322;18.892;2023-04-29T14:46:33;7.40;;;6.80;;
61938;SDS011;47897;50.322;18.892;2023-04-29T14:49:00;7.30;;;6.60;;
61938;SDS011;47897;50.322;18.892;2023-04-29T14:51:27;7.30;;;6.60;;
61938;SDS011;47897;50.322;18.892;2023-04-29T14:53:54;7.40;;;6.70;;
61938;SDS011;47897;50.322;18.892;2023-04-29T14:56:21;7.00;;;6.40;;